Time;durP1;ratioP1;P1;durP2;ratioP2;P2;SDS_P1;SDS_P2;PMS_P1;PMS_P2;Temp;Humidity;BMP_temperature;BMP_pressure;BME280_temperature;BME280_humidity;BME280_pressure;Samples;Min_cycle;Max_cycle;Signal;HPM_P1;HPM_P2
2023/04/29 00:01:06;;;;;;;82.43;37.05;;;;;;;10.74;100.00;101305.31;5070840;28;20086;-72
2023/04/29 00:03:32;;;;;;;78.32;37.60;;;;;;;10.65;100.00;101308.53;5070649;28;20726;-72
2023/04/29 00:05:58;;;;;;;81.72;39.47;;;;;;;10.78;100.00;101314.00;5083700;28;20044;-71
2023/04/29 00:08:24;;;;;;;80.22;37.17;;;;;;;10.72;100.00;101309.88;5075621;28;20090;-72
2023/04/29 00:10:49;;;;;;;73.95;36.97;;;;;;;10.72;100.00;101304.56;5071023;28;20839;-71
2023/04/29 00:13:16;;;;;;;84.72;39.33;;;;;;;10.77;100.00;101320.28;5068107;28;20034;-72
2023/04/29 00:15:42;;;;;;;81.18;37.28;;;;;;;10.66;100.00;101314.72;5070063;28;20059;-72
2023/04/29 00:18:09;;;;;;;79.28;38.00;;;;;;;10.76;100.00;101316.78;5070612;28;20115;-71
2023/04/29 00:20:35;;;;;;;83.15;38.13;;;;;;;10.84;100.00;101314.53;5070156;28;20064;-72
2023/04/29 00:23:00;;;;;;;87.53;41.42;;;;;;;10.70;100.00;101327.78;5072985;28;20024;-72
2023/04/29 00:25:26;;;;;;;82.97;39.67;;;;;;;10.72;100.00;101320.56;5068927;28;20045;-71
2023/04/29 00:27:52;;;;;;;91.63;41.47;;;;;;;10.70;100.00;101330.47;5050807;28;20033;-70
2023/04/29 00:30:17;;;;;;;84.75;39.92;;;;;;;10.55;100.00;101333.97;5068488;28;20036;-71
2023/04/29 00:32:43;;;;;;;89.13;41.63;;;;;;;10.55;100.00;101334.84;5069673;28;20485;-71
2023/04/29 00:35:09;;;;;;;82.75;39.88;;;;;;;10.72;100.00;101335.69;5054092;28;20533;-70
2023/04/29 00:37:35;;;;;;;93.07;42.10;;;;;;;10.66;100.00;101344.06;5074996;28;20063;-72
2023/04/29 00:40:01;;;;;;;88.28;42.30;;;;;;;10.62;100.00;101341.53;5069991;28;20033;-70
2023/04/29 00:42:28;;;;;;;90.55;42.28;;;;;;;10.66;100.00;101342.25;5056454;28;20959;-71
2023/04/29 00:44:53;;;;;;;90.38;41.50;;;;;;;10.58;100.00;101348.00;5062644;28;20138;-73
2023/04/29 00:47:19;;;;;;;87.97;41.33;;;;;;;10.54;100.00;101342.91;5068917;28;20037;-73
2023/04/29 00:49:44;;;;;;;89.78;40.20;;;;;;;10.65;100.00;101356.53;5069490;28;20643;-71
2023/04/29 00:52:12;;;;;;;78.50;39.00;;;;;;;10.72;100.00;101351.72;5070190;28;20043;-72
2023/04/29 00:54:39;;;;;;;79.50;38.30;;;;;;;10.77;100.00;101353.16;5071266;28;20032;-73
2023/04/29 00:57:06;;;;;;;75.97;37.97;;;;;;;10.74;100.00;101356.00;5061206;28;20759;-71
2023/04/29 00:59:33;;;;;;;90.55;40.13;;;;;;;10.68;100.00;101352.81;5058658;28;20040;-71
2023/04/29 01:02:01;;;;;;;83.57;39.17;;;;;;;10.63;100.00;101359.25;5066328;28;20110;-71
2023/04/29 01:04:26;;;;;;;82.78;38.85;;;;;;;10.57;100.00;101367.59;5058750;28;20041;-71
2023/04/29 01:07:21;;;;;;;84.10;38.33;;;;;;;10.61;100.00;101369.16;5060027;28;20046;-71
2023/04/29 01:10:08;;;;;;;77.88;37.67;;;;;;;10.48;100.00;101373.44;5069617;28;20120;-71
2023/04/29 01:12:59;;;;;;;85.28;38.97;;;;;;;10.54;100.00;101373.13;5067573;28;20056;-71
2023/04/29 01:15:37;;;;;;;78.30;37.17;;;;;;;10.57;100.00;101372.94;5044825;28;20101;-71
2023/04/29 01:18:09;;;;;;;71.07;33.85;;;;;;;10.58;100.00;101377.31;5063608;28;20033;-71
2023/04/29 01:20:37;;;;;;;73.32;35.28;;;;;;;10.50;100.00;101379.56;5066403;28;20036;-71
2023/04/29 01:23:03;;;;;;;75.60;36.10;;;;;;;10.58;100.00;101385.31;5066098;28;20043;-71
2023/04/29 01:25:29;;;;;;;71.75;35.10;;;;;;;10.58;100.00;101387.13;5065560;28;20191;-71
2023/04/29 01:28:44;;;;;;;73.72;36.30;;;;;;;10.70;100.00;101385.63;5065242;28;20040;-71
2023/04/29 01:31:40;;;;;;;67.18;33.45;;;;;;;10.70;100.00;101386.47;5065936;28;20653;-71
2023/04/29 01:34:14;;;;;;;72.85;35.40;;;;;;;10.61;100.00;101397.63;5062985;28;20513;-71
2023/04/29 01:37:03;;;;;;;65.32;32.70;;;;;;;10.60;100.00;101394.13;5067491;28;20044;-71
2023/04/29 01:39:31;;;;;;;75.38;35.92;;;;;;;10.69;100.00;101399.88;5067477;28;20029;-71
2023/04/29 01:42:37;;;;;;;86.20;36.88;;;;;;;10.66;100.00;101405.41;5059735;28;20037;-72
2023/04/29 01:45:10;;;;;;;74.70;36.13;;;;;;;10.55;100.00;101404.19;5064524;28;20033;-73
2023/04/29 01:47:36;;;;;;;76.10;35.17;;;;;;;10.43;100.00;101406.63;5068259;28;20050;-73
2023/04/29 01:50:02;;;;;;;81.65;36.78;;;;;;;10.47;100.00;101414.38;5060621;28;20106;-72
2023/04/29 01:52:29;;;;;;;81.63;37.05;;;;;;;10.57;100.00;101414.75;5066831;28;20513;-72
2023/04/29 01:54:56;;;;;;;74.55;35.38;;;;;;;10.50;100.00;101408.03;5066383;28;20068;-70
2023/04/29 01:57:22;;;;;;;69.82;34.95;;;;;;;10.52;100.00;101409.66;5066159;28;20036;-72
2023/04/29 02:00:16;;;;;;;65.28;33.33;;;;;;;10.56;100.00;101402.38;5061803;28;20036;-72
2023/04/29 02:02:48;;;;;;;;;;;;;;;10.61;100.00;101411.84;5066463;28;20032;-72
2023/04/29 02:05:35;;;;;;;65.60;33.60;;;;;;;10.50;100.00;101406.22;5070076;28;19990;-72
2023/04/29 02:08:01;;;;;;;66.47;33.55;;;;;;;10.46;100.00;101411.81;5064781;28;20516;-72
2023/04/29 02:10:28;;;;;;;71.07;33.60;;;;;;;10.55;100.00;101416.66;5056763;28;20040;-71
2023/04/29 02:13:03;;;;;;;78.40;34.67;;;;;;;10.51;100.00;101420.41;5052541;28;20036;-72
2023/04/29 02:15:29;;;;;;;66.13;31.27;;;;;;;10.49;100.00;101415.19;5056536;28;20115;-73
2023/04/29 02:17:55;;;;;;;64.20;32.55;;;;;;;10.36;100.00;101422.97;5054609;28;20067;-73
2023/04/29 02:20:20;;;;;;;64.55;31.67;;;;;;;10.45;100.00;101421.63;5071868;28;20798;-73
2023/04/29 02:22:46;;;;;;;60.33;30.02;;;;;;;10.35;100.00;101423.06;5060743;28;20760;-72
2023/04/29 02:25:11;;;;;;;61.90;29.35;;;;;;;10.38;100.00;101425.53;5064842;28;20040;-71
2023/04/29 02:27:37;;;;;;;61.53;29.05;;;;;;;10.31;100.00;101435.66;5055950;28;20047;-70
2023/04/29 02:30:05;;;;;;;59.35;28.42;;;;;;;10.29;100.00;101436.69;5068361;28;20110;-71
2023/04/29 02:32:31;;;;;;;52.50;27.15;;;;;;;10.42;100.00;101437.75;5065602;28;20041;-70
2023/04/29 02:34:57;;;;;;;53.40;26.17;;;;;;;10.48;100.00;101441.91;5066714;28;20177;-71
2023/04/29 02:37:23;;;;;;;51.25;27.45;;;;;;;10.43;100.00;101438.63;5069511;28;20029;-70
2023/04/29 02:39:48;;;;;;;52.17;25.02;;;;;;;10.44;100.00;101440.34;5065484;28;20036;-72
2023/04/29 02:42:14;;;;;;;53.20;26.20;;;;;;;10.40;100.00;101441.47;5069275;28;20426;-72
2023/04/29 02:44:40;;;;;;;41.47;22.98;;;;;;;10.44;100.00;101448.34;5060581;28;20056;-72
2023/04/29 02:47:06;;;;;;;56.70;26.42;;;;;;;10.50;100.00;101451.56;5065240;28;21180;-71
2023/04/29 02:49:31;;;;;;;52.35;26.00;;;;;;;10.59;100.00;101461.75;5069355;28;20098;-71
2023/04/29 02:51:57;;;;;;;45.15;23.05;;;;;;;10.40;100.00;101460.13;5069689;28;20039;-71
2023/04/29 02:54:23;;;;;;;42.05;23.40;;;;;;;10.38;100.00;101462.84;5053547;28;20079;-71
2023/04/29 02:56:48;;;;;;;50.15;23.00;;;;;;;10.46;100.00;101465.13;5046372;28;20049;-72
2023/04/29 02:59:14;;;;;;;47.53;25.20;;;;;;;10.55;100.00;101457.50;5070059;28;20027;-71
2023/04/29 03:01:40;;;;;;;39.72;23.05;;;;;;;10.53;100.00;101467.38;5066859;28;20040;-71
2023/04/29 03:04:06;;;;;;;47.63;26.02;;;;;;;10.51;100.00;101468.41;5066056;28;20040;-71
2023/04/29 03:06:32;;;;;;;48.80;24.98;;;;;;;10.54;100.00;101474.47;5055080;28;20101;-71
2023/04/29 03:08:57;;;;;;;42.25;23.95;;;;;;;10.56;100.00;101474.38;5063512;28;20457;-71
2023/04/29 03:11:24;;;;;;;49.67;24.08;;;;;;;10.59;100.00;101466.19;5057986;28;20031;-71
2023/04/29 03:13:50;;;;;;;45.13;24.65;;;;;;;10.50;100.00;101470.22;5069699;28;20057;-72
2023/04/29 03:16:18;;;;;;;43.33;23.67;;;;;;;10.29;100.00;101477.56;5050107;28;20032;-72
2023/04/29 03:18:44;;;;;;;43.30;23.83;;;;;;;10.39;100.00;101475.25;5060199;28;21107;-71
2023/04/29 03:21:09;;;;;;;47.33;23.85;;;;;;;10.37;100.00;101472.66;5074463;28;20090;-71
2023/04/29 03:23:35;;;;;;;48.20;25.38;;;;;;;10.34;100.00;101477.28;5067586;28;20029;-71
2023/04/29 03:26:03;;;;;;;41.22;22.42;;;;;;;10.25;100.00;101477.78;5055578;28;20092;-71
2023/04/29 03:28:29;;;;;;;44.03;23.85;;;;;;;10.33;100.00;101479.09;5052039;28;20082;-70
2023/04/29 03:30:55;;;;;;;42.08;23.42;;;;;;;10.38;100.00;101487.72;5069389;28;20040;-70
2023/04/29 03:33:21;;;;;;;47.40;24.17;;;;;;;10.29;100.00;101487.31;5053233;28;20028;-72
2023/04/29 03:35:47;;;;;;;50.97;24.73;;;;;;;10.26;100.00;101480.38;5065636;28;20037;-72
2023/04/29 03:38:34;;;;;;;43.00;21.58;;;;;;;10.09;100.00;101491.88;5061947;28;21419;-71
2023/04/29 03:41:00;;;;;;;41.70;23.45;;;;;;;10.22;100.00;101493.91;5056447;28;20024;-72
2023/04/29 03:43:26;;;;;;;45.50;23.67;;;;;;;10.25;100.00;101486.63;5070856;28;20198;-71
2023/04/29 03:45:51;;;;;;;46.05;23.80;;;;;;;10.26;100.00;101490.16;5067517;28;20477;-70
2023/04/29 03:48:20;;;;;;;44.80;22.27;;;;;;;10.25;100.00;101486.63;5065913;28;20326;-70
2023/04/29 03:50:46;;;;;;;43.17;23.52;;;;;;;10.29;100.00;101482.88;5067974;28;20068;-70
2023/04/29 03:53:12;;;;;;;42.55;24.48;;;;;;;10.20;100.00;101498.44;5050763;28;20068;-72
2023/04/29 03:55:38;;;;;;;40.65;23.00;;;;;;;10.27;100.00;101495.41;5072421;28;20040;-72
2023/04/29 03:58:05;;;;;;;42.60;22.98;;;;;;;10.25;100.00;101501.78;5068283;28;20066;-72
2023/04/29 04:00:31;;;;;;;42.97;23.05;;;;;;;10.24;100.00;101506.25;5063913;28;20071;-73
2023/04/29 04:02:58;;;;;;;45.30;25.23;;;;;;;10.23;100.00;101503.59;5067568;28;20118;-73
2023/04/29 04:05:24;;;;;;;51.30;26.02;;;;;;;10.27;100.00;101519.41;5069877;28;20674;-73
2023/04/29 04:07:54;;;;;;;43.78;24.10;;;;;;;10.26;100.00;101509.69;5073020;28;20041;-72
2023/04/29 04:10:29;;;;;;;41.97;24.23;;;;;;;10.31;100.00;101515.63;5073079;28;20068;-74
2023/04/29 04:12:56;;;;;;;47.55;26.02;;;;;;;10.36;100.00;101523.41;5050634;28;21560;-73
2023/04/29 04:15:21;;;;;;;45.90;24.92;;;;;;;10.39;100.00;101528.56;5070669;28;20830;-73
2023/04/29 04:17:47;;;;;;;46.25;26.02;;;;;;;10.30;100.00;101529.91;5053189;28;20025;-72
2023/04/29 04:20:13;;;;;;;49.13;25.75;;;;;;;10.30;100.00;101529.91;5071914;28;20735;-72
2023/04/29 04:22:38;;;;;;;45.17;24.55;;;;;;;10.26;100.00;101538.16;5069735;28;20813;-72
2023/04/29 04:25:25;;;;;;;48.25;25.63;;;;;;;10.24;100.00;101540.91;5062975;28;20037;-72
2023/04/29 04:27:54;;;;;;;52.38;26.95;;;;;;;10.29;100.00;101540.63;5071505;28;20028;-72
2023/04/29 04:30:30;;;;;;;47.03;25.88;;;;;;;10.03;100.00;101545.44;5052861;28;20140;-72
2023/04/29 04:32:56;;;;;;;59.08;28.13;;;;;;;10.11;100.00;101553.06;5064873;28;20032;-72
2023/04/29 04:35:21;;;;;;;48.25;25.25;;;;;;;9.92;100.00;101555.78;5068360;28;20090;-72
2023/04/29 04:37:47;;;;;;;56.80;27.63;;;;;;;10.18;100.00;101562.47;5055513;28;20106;-71
2023/04/29 04:40:12;;;;;;;46.63;25.77;;;;;;;10.19;100.00;101561.56;5069189;28;20079;-71
2023/04/29 04:42:58;;;;;;;46.60;25.67;;;;;;;10.10;100.00;101560.22;5079279;28;20048;-71
2023/04/29 04:45:23;;;;;;;50.15;26.30;;;;;;;10.16;100.00;101560.84;5071370;28;20052;-71
2023/04/29 04:47:50;;;;;;;46.05;25.50;;;;;;;10.26;100.00;101565.66;5061645;28;20151;-71
2023/04/29 04:50:28;;;;;;;52.75;28.35;;;;;;;10.26;100.00;101564.81;5071237;28;20028;-70
2023/04/29 04:52:55;;;;;;;53.03;27.10;;;;;;;10.42;100.00;101567.53;5054514;28;20073;-71
2023/04/29 04:55:43;;;;;;;45.17;24.95;;;;;;;10.42;100.00;101573.75;5066101;28;20036;-71
2023/04/29 04:58:09;;;;;;;44.28;25.17;;;;;;;10.42;100.00;101576.41;5068394;28;20043;-71
2023/04/29 05:00:35;;;;;;;44.42;24.92;;;;;;;10.40;100.00;101575.63;5073359;28;20110;-71
2023/04/29 05:03:02;;;;;;;44.22;24.75;;;;;;;10.28;100.00;101573.56;5060572;28;20114;-72
2023/04/29 05:05:27;;;;;;;46.10;25.48;;;;;;;10.38;100.00;101582.81;5067316;28;20222;-72
2023/04/29 05:07:53;;;;;;;44.90;24.30;;;;;;;10.42;100.00;101583.53;5077565;28;20200;-72
2023/04/29 05:10:25;;;;;;;44.80;25.27;;;;;;;10.49;100.00;101585.84;5076228;28;20050;-72
2023/04/29 05:12:52;;;;;;;43.92;24.55;;;;;;;10.45;100.00;101591.41;5071440;28;20533;-72
2023/04/29 05:15:18;;;;;;;43.83;25.38;;;;;;;10.50;100.00;101592.88;5072145;28;20036;-72
2023/04/29 05:17:45;;;;;;;48.58;24.92;;;;;;;10.48;100.00;101594.75;5048409;28;20028;-72
2023/04/29 05:20:11;;;;;;;47.95;26.77;;;;;;;10.44;100.00;101594.97;5071206;28;20105;-72
2023/04/29 05:22:37;;;;;;;52.42;24.88;;;;;;;10.43;100.00;101606.59;5064496;28;20089;-71
2023/04/29 05:25:03;;;;;;;42.38;24.92;;;;;;;10.57;100.00;101607.63;5052587;28;20117;-72
2023/04/29 05:27:30;;;;;;;50.08;26.08;;;;;;;10.57;100.00;101604.94;5050736;28;20571;-72
2023/04/29 05:29:56;;;;;;;45.72;25.75;;;;;;;10.51;100.00;101609.75;5053056;28;20111;-72
2023/04/29 05:32:22;;;;;;;39.90;23.17;;;;;;;10.55;100.00;101612.19;5064665;28;20028;-71
2023/04/29 05:34:47;;;;;;;46.60;26.67;;;;;;;10.60;100.00;101623.47;5080759;28;20066;-71
2023/04/29 05:37:14;;;;;;;43.42;25.25;;;;;;;10.58;100.00;101619.16;5078026;28;20066;-71
2023/04/29 05:39:57;;;;;;;47.70;26.40;;;;;;;10.55;100.00;101620.19;5069874;28;20036;-71
2023/04/29 05:42:23;;;;;;;51.42;26.13;;;;;;;10.50;100.00;101627.56;5065305;28;20143;-72
2023/04/29 05:44:52;;;;;;;51.67;28.42;;;;;;;10.55;100.00;101622.00;5060854;28;20100;-73
2023/04/29 05:47:18;;;;;;;49.20;27.55;;;;;;;10.62;100.00;101626.91;5082068;27;20516;-71
2023/04/29 05:49:44;;;;;;;48.58;26.75;;;;;;;10.57;100.00;101626.28;5062956;28;20044;-72
2023/04/29 05:52:09;;;;;;;39.30;26.42;;;;;;;10.58;100.00;101633.34;5044285;28;20036;-72
2023/04/29 05:54:40;;;;;;;46.08;27.58;;;;;;;10.69;100.00;101635.47;5054510;28;20040;-72
2023/04/29 05:57:06;;;;;;;52.15;27.38;;;;;;;10.48;100.00;101647.22;5055930;28;20036;-72
2023/04/29 05:59:32;;;;;;;49.42;28.85;;;;;;;10.67;100.00;101645.34;5066598;28;20086;-72
2023/04/29 06:02:01;;;;;;;48.40;27.95;;;;;;;10.83;100.00;101648.97;5061518;28;21529;-72
2023/04/29 06:04:27;;;;;;;44.17;26.70;;;;;;;10.81;100.00;101647.31;5066953;28;20360;-72
2023/04/29 06:07:13;;;;;;;45.33;26.70;;;;;;;11.05;100.00;101640.72;5062808;28;20040;-72
2023/04/29 06:09:57;;;;;;;41.60;27.60;;;;;;;11.13;100.00;101648.31;5071141;28;20036;-72
2023/04/29 06:12:24;;;;;;;46.75;26.65;;;;;;;10.99;100.00;101654.34;5041713;28;20028;-72
2023/04/29 06:14:50;;;;;;;41.63;24.75;;;;;;;10.95;100.00;101652.81;5064011;28;20752;-72
2023/04/29 06:17:15;;;;;;;51.75;26.52;;;;;;;10.91;100.00;101661.91;5081822;28;20043;-72
2023/04/29 06:19:42;;;;;;;49.60;27.40;;;;;;;10.88;100.00;101670.06;5047278;28;20073;-72
2023/04/29 06:22:08;;;;;;;45.40;25.85;;;;;;;10.94;100.00;101661.75;5070578;28;20106;-72
2023/04/29 06:24:35;;;;;;;49.33;25.25;;;;;;;10.79;100.00;101657.19;5052384;28;20215;-72
2023/04/29 06:27:03;;;;;;;43.70;26.38;;;;;;;10.93;100.00;101672.50;5066080;28;20115;-72
2023/04/29 06:29:28;;;;;;;43.70;25.13;;;;;;;10.90;100.00;101678.88;5069572;28;20058;-72
2023/04/29 06:31:54;;;;;;;43.22;25.23;;;;;;;10.86;100.00;101680.84;5069428;28;20037;-72
2023/04/29 06:34:21;;;;;;;39.92;25.30;;;;;;;10.85;100.00;101691.59;5074907;28;20055;-72
2023/04/29 06:37:10;;;;;;;48.13;25.33;;;;;;;10.88;100.00;101700.28;5061004;28;20064;-72
2023/04/29 06:39:53;;;;;;;44.75;25.33;;;;;;;10.70;100.00;101701.22;5069675;28;20576;-72
2023/04/29 06:42:39;;;;;;;46.97;26.13;;;;;;;10.79;100.00;101699.88;5061731;28;20043;-72
2023/04/29 06:45:46;;;;;;;43.55;25.58;;;;;;;10.93;100.00;101699.19;5064849;28;20053;-72
2023/04/29 06:48:19;;;;;;;53.95;26.45;;;;;;;10.98;100.00;101703.34;5027786;28;20176;-72
2023/04/29 06:50:53;;;;;;;51.90;27.50;;;;;;;10.53;100.00;101712.72;5047535;28;20087;-72
2023/04/29 06:53:20;;;;;;;43.90;26.20;;;;;;;10.89;100.00;101709.16;5060790;28;20709;-72
2023/04/29 06:55:47;;;;;;;46.90;24.73;;;;;;;10.95;100.00;101708.88;5055694;28;20111;-72
2023/04/29 06:58:16;;;;;;;47.92;25.73;;;;;;;11.03;100.00;101706.63;5058953;28;20095;-72
2023/04/29 07:00:47;;;;;;;47.85;26.50;;;;;;;10.81;100.00;101714.88;5042504;28;20143;-72
2023/04/29 07:03:14;;;;;;;42.05;24.95;;;;;;;11.11;100.00;101724.94;5055762;28;20116;-72
2023/04/29 07:05:41;;;;;;;43.38;24.17;;;;;;;11.01;100.00;101718.34;5060243;28;20044;-72
2023/04/29 07:08:09;;;;;;;47.10;25.77;;;;;;;11.31;100.00;101731.94;5046443;28;20141;-72
2023/04/29 07:10:34;;;;;;;43.85;25.52;;;;;;;11.43;100.00;101730.41;5065964;28;20078;-72
2023/04/29 07:13:00;;;;;;;78.25;36.97;;;;;;;11.47;100.00;101738.19;5047968;28;20032;-71
2023/04/29 07:15:27;;;;;;;46.67;25.20;;;;;;;11.45;100.00;101740.09;5049755;28;20472;-72
2023/04/29 07:17:53;;;;;;;47.92;25.10;;;;;;;11.03;100.00;101735.13;5070355;28;20028;-71
2023/04/29 07:20:19;;;;;;;40.33;26.08;;;;;;;11.31;100.00;101748.81;5073225;28;20036;-71
2023/04/29 07:22:44;;;;;;;47.85;23.73;;;;;;;11.73;100.00;101746.63;5062900;28;20032;-71
2023/04/29 07:25:11;;;;;;;47.05;27.05;;;;;;;11.55;100.00;101749.34;5064471;28;20101;-72
2023/04/29 07:27:38;;;;;;;46.10;26.00;;;;;;;11.83;100.00;101754.09;5061672;28;20438;-71
2023/04/29 07:30:04;;;;;;;46.53;24.30;;;;;;;11.86;100.00;101751.25;5065315;28;20036;-70
2023/04/29 07:32:31;;;;;;;38.70;23.17;;;;;;;11.79;100.00;101756.97;5053235;28;20032;-70
2023/04/29 07:35:00;;;;;;;40.70;24.30;;;;;;;11.61;100.00;101765.03;5049658;28;20056;-71
2023/04/29 07:37:26;;;;;;;41.22;23.98;;;;;;;11.88;100.00;101767.19;5060727;28;20135;-71
2023/04/29 07:39:51;;;;;;;38.60;22.15;;;;;;;11.90;100.00;101768.88;5070471;28;20588;-70
2023/04/29 07:42:17;;;;;;;37.40;23.73;;;;;;;12.27;100.00;101769.50;5056287;28;20039;-71
2023/04/29 07:44:44;;;;;;;42.92;24.33;;;;;;;12.31;100.00;101765.72;5064056;28;20162;-72
2023/04/29 07:47:13;;;;;;;42.67;25.25;;;;;;;12.34;100.00;101762.00;5066520;28;20040;-71
2023/04/29 07:49:40;;;;;;;43.03;24.02;;;;;;;12.28;100.00;101781.06;5062367;28;20178;-70
2023/04/29 07:52:08;;;;;;;48.75;25.00;;;;;;;12.35;100.00;101777.97;5071229;28;20054;-70
2023/04/29 07:54:35;;;;;;;39.35;24.38;;;;;;;12.62;100.00;101772.00;5079308;28;20387;-70
2023/04/29 07:57:02;;;;;;;40.10;23.20;;;;;;;12.52;100.00;101779.69;5062381;28;20116;-71
2023/04/29 07:59:28;;;;;;;39.30;22.83;;;;;;;12.64;100.00;101780.81;5063103;28;20043;-70
2023/04/29 08:01:54;;;;;;;38.03;21.48;;;;;;;12.87;100.00;101790.19;5065047;28;20040;-71
2023/04/29 08:04:20;;;;;;;43.92;22.80;;;;;;;12.63;100.00;101796.00;5062417;28;20037;-70
2023/04/29 08:06:49;;;;;;;37.45;20.90;;;;;;;12.75;100.00;101793.56;5069135;28;20040;-71
2023/04/29 08:09:15;;;;;;;34.05;21.05;;;;;;;13.04;100.00;101797.25;5068174;28;20787;-70
2023/04/29 08:11:43;;;;;;;30.27;19.08;;;;;;;12.86;100.00;101801.88;5045609;28;20138;-72
2023/04/29 08:14:11;;;;;;;36.72;20.58;;;;;;;13.05;100.00;101799.84;5072763;28;20041;-72
2023/04/29 08:16:37;;;;;;;35.50;21.27;;;;;;;13.67;100.00;101811.34;5071401;28;20216;-72
2023/04/29 08:19:03;;;;;;;35.60;21.38;;;;;;;13.71;100.00;101801.31;5056854;28;20036;-71
2023/04/29 08:21:30;;;;;;;38.47;20.38;;;;;;;13.69;100.00;101803.19;5071264;28;20032;-71
2023/04/29 08:23:56;;;;;;;37.20;21.17;;;;;;;13.55;100.00;101805.84;5068206;28;20036;-71
2023/04/29 08:26:22;;;;;;;38.13;19.60;;;;;;;13.94;100.00;101811.44;5070430;28;20037;-70
2023/04/29 08:28:48;;;;;;;31.88;17.77;;;;;;;13.83;100.00;101810.41;5067191;28;20044;-71
2023/04/29 08:31:18;;;;;;;31.75;19.83;;;;;;;14.03;100.00;101819.91;5068663;28;20318;-71
2023/04/29 08:33:44;;;;;;;36.30;18.92;;;;;;;13.21;100.00;101821.25;5057030;28;20048;-71
2023/04/29 08:36:09;;;;;;;38.55;20.27;;;;;;;13.86;100.00;101823.63;5060376;28;20067;-70
2023/04/29 08:38:35;;;;;;;29.23;17.92;;;;;;;13.11;100.00;101818.22;5061620;28;20034;-70
2023/04/29 08:41:00;;;;;;;31.27;17.75;;;;;;;13.63;100.00;101819.66;5075710;28;20094;-70
2023/04/29 08:43:27;;;;;;;34.20;19.83;;;;;;;14.15;100.00;101816.44;4999228;28;20046;-71
2023/04/29 08:45:53;;;;;;;25.70;18.02;;;;;;;14.62;100.00;101810.78;5010356;28;20228;-70
2023/04/29 08:48:20;;;;;;;29.00;16.63;;;;;;;14.71;98.68;101814.69;5034147;28;20049;-71
2023/04/29 08:50:46;;;;;;;33.80;19.30;;;;;;;14.48;100.00;101826.91;5006307;28;20033;-70
2023/04/29 08:53:13;;;;;;;30.27;18.15;;;;;;;14.87;100.00;101822.59;5006222;28;20037;-70
2023/04/29 08:55:46;;;;;;;28.00;16.67;;;;;;;13.82;100.00;101828.31;5005404;28;20033;-70
2023/04/29 08:58:13;;;;;;;28.75;17.10;;;;;;;14.58;100.00;101828.03;5007294;28;20593;-70
2023/04/29 09:00:40;;;;;;;33.60;18.67;;;;;;;14.25;100.00;101831.00;5005219;28;20060;-70
2023/04/29 09:03:51;;;;;;;28.88;17.83;;;;;;;14.42;100.00;101832.63;5006265;28;20049;-70
2023/04/29 09:06:17;;;;;;;32.63;18.55;;;;;;;14.19;100.00;101842.97;5004198;28;20060;-70
2023/04/29 09:08:43;;;;;;;29.92;17.85;;;;;;;14.83;100.00;101834.50;5005507;28;20057;-70
2023/04/29 09:11:11;;;;;;;25.92;16.58;;;;;;;14.79;100.00;101833.81;5007711;28;20034;-71
2023/04/29 09:13:36;;;;;;;26.40;16.65;;;;;;;14.89;94.92;101829.56;5008501;28;20576;-72
2023/04/29 09:16:02;;;;;;;33.67;18.17;;;;;;;14.03;100.00;101839.53;5008222;28;21045;-72
2023/04/29 09:18:47;;;;;;;26.67;16.50;;;;;;;14.96;100.00;101833.59;5007248;28;20033;-70
2023/04/29 09:21:18;;;;;;;28.25;16.55;;;;;;;15.39;93.96;101830.72;5008459;28;20099;-70
2023/04/29 09:23:45;;;;;;;27.73;16.70;;;;;;;15.02;97.53;101837.69;5008847;28;20030;-70
2023/04/29 09:26:11;;;;;;;28.30;16.05;;;;;;;15.15;93.21;101837.72;5023953;28;20055;-70
2023/04/29 09:28:40;;;;;;;27.30;16.77;;;;;;;15.26;98.57;101828.00;5008133;28;20041;-70
2023/04/29 09:31:07;;;;;;;29.25;16.35;;;;;;;14.69;92.54;101844.28;5007751;28;20037;-70
2023/04/29 09:33:54;;;;;;;28.38;15.65;;;;;;;14.92;97.14;101856.25;5008691;28;20050;-72
2023/04/29 09:36:48;;;;;;;26.30;15.48;;;;;;;14.20;96.89;101863.47;5006562;28;20029;-72
2023/04/29 09:39:19;;;;;;;27.70;16.10;;;;;;;13.84;99.70;101860.38;5004964;28;20061;-72
2023/04/29 09:41:51;;;;;;;30.52;15.05;;;;;;;13.92;100.00;101861.66;5006497;28;20104;-72
2023/04/29 09:44:27;;;;;;;26.33;14.45;;;;;;;13.98;100.00;101872.00;5004241;28;20029;-70
2023/04/29 09:46:56;;;;;;;28.15;15.32;;;;;;;13.92;100.00;101874.19;5005816;28;20157;-70
2023/04/29 09:49:26;;;;;;;26.02;15.70;;;;;;;13.71;100.00;101874.53;5005881;28;20053;-70
2023/04/29 09:51:55;;;;;;;23.77;14.18;;;;;;;14.28;99.78;101873.75;5005154;28;20046;-70
2023/04/29 09:54:22;;;;;;;25.42;14.70;;;;;;;13.53;100.00;101874.75;5006720;28;20038;-70
2023/04/29 09:56:50;;;;;;;25.23;15.00;;;;;;;14.09;100.00;101884.75;5006344;28;20607;-70
2023/04/29 09:59:18;;;;;;;22.30;13.63;;;;;;;15.19;97.31;101869.66;5004370;28;20037;-71
2023/04/29 10:01:47;;;;;;;26.38;14.15;;;;;;;13.83;98.15;101883.66;5005373;28;20029;-73
2023/04/29 10:04:15;;;;;;;23.48;14.45;;;;;;;14.10;100.00;101894.50;5004284;28;21414;-70
2023/04/29 10:06:43;;;;;;;21.40;13.32;;;;;;;14.43;100.00;101880.81;5006362;28;20114;-71
2023/04/29 10:09:17;;;;;;;21.00;12.00;;;;;;;14.67;98.15;101870.41;5005459;28;20131;-70
2023/04/29 10:11:44;;;;;;;19.17;12.43;;;;;;;14.43;100.00;101888.88;4988777;28;20117;-71
2023/04/29 10:14:32;;;;;;;21.90;12.27;;;;;;;15.28;95.08;101863.69;5006355;28;20056;-71
2023/04/29 10:16:57;;;;;;;17.52;11.77;;;;;;;14.95;88.97;101879.34;5005197;28;20033;-71
2023/04/29 10:19:34;;;;;;;26.63;13.80;;;;;;;15.07;98.58;101872.31;5004021;28;20695;-70
2023/04/29 10:22:11;;;;;;;22.35;13.00;;;;;;;14.93;90.85;101876.75;5005159;28;20036;-71
2023/04/29 10:24:38;;;;;;;22.27;12.52;;;;;;;15.02;92.16;101876.16;5006386;28;20573;-70
2023/04/29 10:27:11;;;;;;;19.90;11.98;;;;;;;15.89;92.56;101871.25;5003389;28;20152;-70
2023/04/29 10:29:38;;;;;;;15.88;10.52;;;;;;;14.95;90.36;101879.34;5003319;28;20188;-70
2023/04/29 10:32:11;;;;;;;19.77;11.55;;;;;;;14.62;91.25;101882.38;5003692;28;20029;-70
2023/04/29 10:34:40;;;;;;;16.70;10.63;;;;;;;15.29;90.61;101881.53;5004181;28;20718;-70
2023/04/29 10:37:10;;;;;;;21.75;11.60;;;;;;;15.76;87.33;101869.44;5004144;28;20030;-70
2023/04/29 10:40:04;;;;;;;17.42;11.65;;;;;;;15.45;84.67;101878.66;5002385;28;20555;-71
2023/04/29 10:42:38;;;;;;;15.63;10.65;;;;;;;15.10;87.04;101882.84;4992329;28;20192;-70
2023/04/29 10:45:17;;;;;;;17.25;10.90;;;;;;;15.89;82.15;101877.50;5052581;28;20053;-71
2023/04/29 10:48:07;;;;;;;15.27;10.27;;;;;;;15.51;84.01;101878.28;5023139;28;20076;-70
2023/04/29 10:50:48;;;;;;;17.48;10.20;;;;;;;15.18;85.74;101889.44;5038480;28;20057;-71
2023/04/29 10:53:19;;;;;;;15.60;9.98;;;;;;;15.55;79.24;101877.09;5020536;28;20054;-70
2023/04/29 10:55:54;;;;;;;14.63;9.70;;;;;;;15.83;80.52;101877.09;5025045;28;20042;-71
2023/04/29 10:58:42;;;;;;;14.63;9.88;;;;;;;15.90;79.94;101875.66;5011648;27;20052;-70
2023/04/29 11:01:10;;;;;;;15.98;10.63;;;;;;;15.85;86.70;101873.31;5035544;28;20297;-71
2023/04/29 11:04:00;;;;;;;17.05;9.93;;;;;;;14.98;85.46;101881.84;5036985;28;20047;-70
2023/04/29 11:06:53;;;;;;;16.80;10.15;;;;;;;15.35;83.96;101888.31;5039072;28;20037;-71
2023/04/29 11:09:26;;;;;;;17.58;9.93;;;;;;;16.04;85.07;101878.28;5025478;28;20029;-70
2023/04/29 11:11:59;;;;;;;20.05;11.43;;;;;;;15.59;88.65;101879.56;5022032;28;20573;-70
2023/04/29 11:14:42;;;;;;;16.25;10.10;;;;;;;15.72;85.53;101881.38;5019968;28;20037;-70